sensor_id;sensor_type;location;lat;lon;timestamp;P1;durP1;ratioP1;P2;durP2;ratioP2
33074;SDS011;19433;51.292;6.868;2023-11-18T09:38:11;10.80;;;8.70;;
33074;SDS011;19433;51.292;6.868;2023-11-18T10:03:55;10.00;;;7.87;;
33074;SDS011;19433;51.292;6.868;2023-11-18T10:06:23;8.70;;;7.40;;
33074;SDS011;19433;51.292;6.868;2023-11-18T10:08:51;8.67;;;7.90;;
33074;SDS011;19433;51.292;6.868;2023-11-18T10:11:18;8.07;;;7.27;;
33074;SDS011;19433;51.292;6.868;2023-11-18T10:13:47;8.10;;;7.30;;
33074;SDS011;19433;51.292;6.868;2023-11-18T10:16:13;8.80;;;7.83;;
33074;SDS011;19433;51.292;6.868;2023-11-18T10:18:39;8.00;;;7.20;;
33074;SDS011;19433;51.292;6.868;2023-11-18T10:21:13;8.00;;;7.20;;
33074;SDS011;19433;51.292;6.868;2023-11-18T10:23:46;7.47;;;6.80;;
33074;SDS011;19433;51.292;6.868;2023-11-18T10:26:24;9.57;;;7.70;;
33074;SDS011;19433;51.292;6.868;2023-11-18T10:28:50;10.60;;;7.30;;
33074;SDS011;19433;51.292;6.868;2023-11-18T10:31:18;8.23;;;7.23;;
33074;SDS011;19433;51.292;6.868;2023-11-18T10:33:43;8.20;;;7.07;;
33074;SDS011;19433;51.292;6.868;2023-11-18T10:36:19;7.77;;;7.00;;
33074;SDS011;19433;51.292;6.868;2023-11-18T10:59:23;7.10;;;6.20;;
33074;SDS011;19433;51.292;6.868;2023-11-18T11:01:48;9.03;;;6.60;;
33074;SDS011;19433;51.292;6.868;2023-11-18T11:04:16;6.60;;;5.87;;
33074;SDS011;19433;51.292;6.868;2023-11-18T11:06:48;7.23;;;6.30;;
33074;SDS011;19433;51.292;6.868;2023-11-18T11:27:34;7.90;;;7.10;;
33074;SDS011;19433;51.292;6.868;2023-11-18T11:30:16;10.10;;;7.07;;
33074;SDS011;19433;51.292;6.868;2023-11-18T11:35:54;7.60;;;6.67;;
33074;SDS011;19433;51.292;6.868;2023-11-18T11:38:24;8.10;;;6.97;;
33074;SDS011;19433;51.292;6.868;2023-11-18T11:40:51;8.10;;;7.30;;
33074;SDS011;19433;51.292;6.868;2023-11-18T11:43:19;10.90;;;7.30;;
33074;SDS011;19433;51.292;6.868;2023-11-18T11:45:52;12.30;;;7.97;;
33074;SDS011;19433;51.292;6.868;2023-11-18T11:48:20;7.13;;;6.43;;
33074;SDS011;19433;51.292;6.868;2023-11-18T11:56:43;8.37;;;7.03;;
33074;SDS011;19433;51.292;6.868;2023-11-18T11:59:17;11.33;;;7.87;;
33074;SDS011;19433;51.292;6.868;2023-11-18T12:02:00;10.37;;;9.37;;
33074;SDS011;19433;51.292;6.868;2023-11-18T12:04:32;7.93;;;7.33;;
33074;SDS011;19433;51.292;6.868;2023-11-18T12:06:58;8.23;;;7.40;;
33074;SDS011;19433;51.292;6.868;2023-11-18T12:09:30;8.40;;;7.67;;
33074;SDS011;19433;51.292;6.868;2023-11-18T12:12:02;9.03;;;7.73;;
33074;SDS011;19433;51.292;6.868;2023-11-18T12:14:29;8.87;;;7.37;;
33074;SDS011;19433;51.292;6.868;2023-11-18T12:17:01;8.53;;;7.83;;
33074;SDS011;19433;51.292;6.868;2023-11-18T12:19:40;10.70;;;9.00;;
33074;SDS011;19433;51.292;6.868;2023-11-18T12:22:13;12.23;;;8.17;;
33074;SDS011;19433;51.292;6.868;2023-11-18T21:18:28;4.50;;;4.20;;
33074;SDS011;19433;51.292;6.868;2023-11-18T21:21:38;4.23;;;3.93;;
33074;SDS011;19433;51.292;6.868;2023-11-18T21:31:00;4.03;;;3.73;;
